sensor_id;sensor_type;location;lat;lon;timestamp;temperature;humidity
42147;DHT22;27815;43.410;11.852;2024-03-02T00:01:25;10.40;78.50
42147;DHT22;27815;43.410;11.852;2024-03-02T00:05:28;10.30;78.50
42147;DHT22;27815;43.410;11.852;2024-03-02T00:09:31;10.40;78.50
42147;DHT22;27815;43.410;11.852;2024-03-02T00:13:34;10.40;78.50
42147;DHT22;27815;43.410;11.852;2024-03-02T00:17:38;10.30;78.50
42147;DHT22;27815;43.410;11.852;2024-03-02T00:21:41;10.40;78.40
42147;DHT22;27815;43.410;11.852;2024-03-02T00:25:47;10.40;78.40
42147;DHT22;27815;43.410;11.852;2024-03-02T00:29:51;10.40;78.40
42147;DHT22;27815;43.410;11.852;2024-03-02T00:33:54;10.40;78.40
42147;DHT22;27815;43.410;11.852;2024-03-02T00:37:57;10.40;78.50
42147;DHT22;27815;43.410;11.852;2024-03-02T00:42:00;10.30;78.60
42147;DHT22;27815;43.410;11.852;2024-03-02T00:46:03;10.30;78.60
42147;DHT22;27815;43.410;11.852;2024-03-02T00:50:07;10.30;78.60
42147;DHT22;27815;43.410;11.852;2024-03-02T00:54:26;10.30;78.50
42147;DHT22;27815;43.410;11.852;2024-03-02T00:58:29;10.30;78.60
42147;DHT22;27815;43.410;11.852;2024-03-02T01:02:32;10.30;78.50
42147;DHT22;27815;43.410;11.852;2024-03-02T01:06:35;10.30;78.50
42147;DHT22;27815;43.410;11.852;2024-03-02T01:10:38;10.30;78.50
42147;DHT22;27815;43.410;11.852;2024-03-02T01:14:41;10.30;78.50
42147;DHT22;27815;43.410;11.852;2024-03-02T01:18:44;10.30;78.50
42147;DHT22;27815;43.410;11.852;2024-03-02T01:22:48;10.30;78.50
42147;DHT22;27815;43.410;11.852;2024-03-02T01:26:51;10.30;78.60
42147;DHT22;27815;43.410;11.852;2024-03-02T01:30:53;10.30;78.50
42147;DHT22;27815;43.410;11.852;2024-03-02T01:34:56;10.30;78.60
42147;DHT22;27815;43.410;11.852;2024-03-02T01:38:59;10.30;78.60
42147;DHT22;27815;43.410;11.852;2024-03-02T01:43:06;10.30;78.70
42147;DHT22;27815;43.410;11.852;2024-03-02T01:47:09;10.20;78.70
42147;DHT22;27815;43.410;11.852;2024-03-02T01:51:12;10.30;78.80
42147;DHT22;27815;43.410;11.852;2024-03-02T01:55:15;10.20;78.90
42147;DHT22;27815;43.410;11.852;2024-03-02T01:59:18;10.20;78.90
42147;DHT22;27815;43.410;11.852;2024-03-02T02:03:22;10.20;79.10
42147;DHT22;27815;43.410;11.852;2024-03-02T02:07:24;10.20;79.10
42147;DHT22;27815;43.410;11.852;2024-03-02T02:11:27;10.10;79.30
42147;DHT22;27815;43.410;11.852;2024-03-02T02:15:31;10.10;79.50
42147;DHT22;27815;43.410;11.852;2024-03-02T02:19:34;10.10;79.50
42147;DHT22;27815;43.410;11.852;2024-03-02T02:23:37;10.10;79.60
42147;DHT22;27815;43.410;11.852;2024-03-02T02:27:40;10.10;79.60
42147;DHT22;27815;43.410;11.852;2024-03-02T02:31:43;10.10;79.70
42147;DHT22;27815;43.410;11.852;2024-03-02T02:35:46;10.10;79.70
42147;DHT22;27815;43.410;11.852;2024-03-02T02:39:49;10.10;79.60
42147;DHT22;27815;43.410;11.852;2024-03-02T02:43:52;10.20;79.70
42147;DHT22;27815;43.410;11.852;2024-03-02T02:47:55;10.20;79.60
42147;DHT22;27815;43.410;11.852;2024-03-02T02:51:58;10.30;79.60
42147;DHT22;27815;43.410;11.852;2024-03-02T02:56:02;10.30;79.60
42147;DHT22;27815;43.410;11.852;2024-03-02T03:00:06;10.30;79.70
42147;DHT22;27815;43.410;11.852;2024-03-02T03:04:13;10.30;79.60
42147;DHT22;27815;43.410;11.852;2024-03-02T03:08:16;10.40;79.50
42147;DHT22;27815;43.410;11.852;2024-03-02T03:12:19;10.40;79.50
42147;DHT22;27815;43.410;11.852;2024-03-02T03:16:21;10.40;79.40
42147;DHT22;27815;43.410;11.852;2024-03-02T03:20:24;10.40;79.30
42147;DHT22;27815;43.410;11.852;2024-03-02T03:24:27;10.30;79.40
42147;DHT22;27815;43.410;11.852;2024-03-02T03:28:30;10.20;79.50
42147;DHT22;27815;43.410;11.852;2024-03-02T03:32:33;10.20;79.40
42147;DHT22;27815;43.410;11.852;2024-03-02T03:36:36;10.20;79.40
42147;DHT22;27815;43.410;11.852;2024-03-02T03:40:39;10.20;79.40
42147;DHT22;27815;43.410;11.852;2024-03-02T03:44:42;10.20;79.40
42147;DHT22;27815;43.410;11.852;2024-03-02T03:48:45;10.20;79.40
42147;DHT22;27815;43.410;11.852;2024-03-02T03:52:48;10.20;79.40
42147;DHT22;27815;43.410;11.852;2024-03-02T03:56:51;10.20;79.40
42147;DHT22;27815;43.410;11.852;2024-03-02T04:00:54;10.20;79.40
42147;DHT22;27815;43.410;11.852;2024-03-02T04:04:57;10.20;79.40
42147;DHT22;27815;43.410;11.852;2024-03-02T04:09:00;10.20;79.40
42147;DHT22;27815;43.410;11.852;2024-03-02T04:13:03;10.20;79.40
42147;DHT22;27815;43.410;11.852;2024-03-02T04:17:10;10.20;79.40
42147;DHT22;27815;43.410;11.852;2024-03-02T04:21:13;10.20;79.50
42147;DHT22;27815;43.410;11.852;2024-03-02T04:25:16;10.20;79.60
42147;DHT22;27815;43.410;11.852;2024-03-02T04:29:18;10.20;79.80
42147;DHT22;27815;43.410;11.852;2024-03-02T04:33:21;10.10;80.00
42147;DHT22;27815;43.410;11.852;2024-03-02T04:37:24;10.20;80.20
42147;DHT22;27815;43.410;11.852;2024-03-02T04:41:27;10.10;80.40
42147;DHT22;27815;43.410;11.852;2024-03-02T04:45:30;10.10;80.50
42147;DHT22;27815;43.410;11.852;2024-03-02T04:49:33;10.10;80.70
42147;DHT22;27815;43.410;11.852;2024-03-02T04:53:37;10.20;81.00
42147;DHT22;27815;43.410;11.852;2024-03-02T04:57:40;10.20;81.10
42147;DHT22;27815;43.410;11.852;2024-03-02T05:01:44;10.20;81.40
42147;DHT22;27815;43.410;11.852;2024-03-02T05:05:47;10.10;81.50
42147;DHT22;27815;43.410;11.852;2024-03-02T05:09:50;10.10;81.60
42147;DHT22;27815;43.410;11.852;2024-03-02T05:13:53;10.10;81.60
42147;DHT22;27815;43.410;11.852;2024-03-02T05:17:56;10.10;81.70
42147;DHT22;27815;43.410;11.852;2024-03-02T05:22:01;10.20;81.70
42147;DHT22;27815;43.410;11.852;2024-03-02T05:26:04;10.20;81.70
42147;DHT22;27815;43.410;11.852;2024-03-02T05:30:07;10.10;81.80
42147;DHT22;27815;43.410;11.852;2024-03-02T05:34:11;10.10;81.70
42147;DHT22;27815;43.410;11.852;2024-03-02T05:38:14;10.20;81.70
42147;DHT22;27815;43.410;11.852;2024-03-02T05:42:17;10.10;81.70
42147;DHT22;27815;43.410;11.852;2024-03-02T05:46:21;10.20;81.70
42147;DHT22;27815;43.410;11.852;2024-03-02T05:50:24;10.20;81.70
42147;DHT22;27815;43.410;11.852;2024-03-02T05:54:29;10.20;81.60
42147;DHT22;27815;43.410;11.852;2024-03-02T05:58:32;10.20;81.70
42147;DHT22;27815;43.410;11.852;2024-03-02T06:02:53;10.10;81.80
42147;DHT22;27815;43.410;11.852;2024-03-02T06:06:56;10.20;81.80
42147;DHT22;27815;43.410;11.852;2024-03-02T06:11:24;10.20;81.80
42147;DHT22;27815;43.410;11.852;2024-03-02T06:15:29;10.20;81.80
42147;DHT22;27815;43.410;11.852;2024-03-02T06:19:40;10.20;82.00
42147;DHT22;27815;43.410;11.852;2024-03-02T06:23:43;10.10;82.10
42147;DHT22;27815;43.410;11.852;2024-03-02T06:27:48;10.10;82.10
42147;DHT22;27815;43.410;11.852;2024-03-02T06:31:51;10.20;82.20
42147;DHT22;27815;43.410;11.852;2024-03-02T06:36:00;10.20;82.20
42147;DHT22;27815;43.410;11.852;2024-03-02T06:40:06;10.20;82.20
42147;DHT22;27815;43.410;11.852;2024-03-02T06:44:13;10.30;82.30
42147;DHT22;27815;43.410;11.852;2024-03-02T06:48:21;10.30;82.30
42147;DHT22;27815;43.410;11.852;2024-03-02T06:52:37;10.30;82.30
42147;DHT22;27815;43.410;11.852;2024-03-02T06:56:40;10.30;82.30
42147;DHT22;27815;43.410;11.852;2024-03-02T07:00:44;10.40;82.30
42147;DHT22;27815;43.410;11.852;2024-03-02T07:04:50;10.30;82.20
42147;DHT22;27815;43.410;11.852;2024-03-02T07:08:57;10.30;82.30
42147;DHT22;27815;43.410;11.852;2024-03-02T07:13:02;10.30;82.50
42147;DHT22;27815;43.410;11.852;2024-03-02T07:17:07;10.30;82.50
42147;DHT22;27815;43.410;11.852;2024-03-02T07:21:12;10.30;82.50
42147;DHT22;27815;43.410;11.852;2024-03-02T07:25:19;10.30;82.50
42147;DHT22;27815;43.410;11.852;2024-03-02T07:29:25;10.30;82.50
42147;DHT22;27815;43.410;11.852;2024-03-02T07:33:30;10.30;82.60
42147;DHT22;27815;43.410;11.852;2024-03-02T07:37:37;10.30;82.70
42147;DHT22;27815;43.410;11.852;2024-03-02T07:41:45;10.40;82.60
42147;DHT22;27815;43.410;11.852;2024-03-02T07:45:50;10.50;82.60
42147;DHT22;27815;43.410;11.852;2024-03-02T07:49:56;10.50;82.60
42147;DHT22;27815;43.410;11.852;2024-03-02T07:54:01;10.50;82.30
42147;DHT22;27815;43.410;11.852;2024-03-02T07:58:06;10.60;82.20
42147;DHT22;27815;43.410;11.852;2024-03-02T08:02:12;10.80;82.00
42147;DHT22;27815;43.410;11.852;2024-03-02T08:06:29;10.90;81.80
42147;DHT22;27815;43.410;11.852;2024-03-02T08:10:36;10.90;81.60
42147;DHT22;27815;43.410;11.852;2024-03-02T08:14:53;11.00;81.40
42147;DHT22;27815;43.410;11.852;2024-03-02T08:19:39;11.10;81.30
42147;DHT22;27815;43.410;11.852;2024-03-02T08:23:43;11.30;81.30
42147;DHT22;27815;43.410;11.852;2024-03-02T08:29:34;11.30;81.00
42147;DHT22;27815;43.410;11.852;2024-03-02T08:45:33;11.50;80.70
42147;DHT22;27815;43.410;11.852;2024-03-02T08:50:01;11.50;80.70
42147;DHT22;27815;43.410;11.852;2024-03-02T08:55:27;11.50;80.60
42147;DHT22;27815;43.410;11.852;2024-03-02T09:11:07;11.60;80.20
42147;DHT22;27815;43.410;11.852;2024-03-02T09:15:47;11.70;80.10
42147;DHT22;27815;43.410;11.852;2024-03-02T09:20:16;11.80;79.90
42147;DHT22;27815;43.410;11.852;2024-03-02T09:24:20;11.80;79.90
42147;DHT22;27815;43.410;11.852;2024-03-02T09:28:45;12.00;79.80
42147;DHT22;27815;43.410;11.852;2024-03-02T09:32:56;12.10;79.50
42147;DHT22;27815;43.410;11.852;2024-03-02T09:37:18;12.30;79.20
42147;DHT22;27815;43.410;11.852;2024-03-02T09:41:30;12.40;78.90
42147;DHT22;27815;43.410;11.852;2024-03-02T09:45:44;12.40;78.30
42147;DHT22;27815;43.410;11.852;2024-03-02T09:49:54;12.50;78.20
42147;DHT22;27815;43.410;11.852;2024-03-02T09:54:01;12.50;78.10
42147;DHT22;27815;43.410;11.852;2024-03-02T09:58:48;12.60;78.00
42147;DHT22;27815;43.410;11.852;2024-03-02T10:03:16;12.60;77.90
42147;DHT22;27815;43.410;11.852;2024-03-02T10:07:30;12.70;77.90
42147;DHT22;27815;43.410;11.852;2024-03-02T10:11:44;12.70;77.90
42147;DHT22;27815;43.410;11.852;2024-03-02T10:15:51;13.00;78.00
42147;DHT22;27815;43.410;11.852;2024-03-02T10:20:26;13.30;77.40
42147;DHT22;27815;43.410;11.852;2024-03-02T10:24:52;13.40;76.80
42147;DHT22;27815;43.410;11.852;2024-03-02T10:29:11;13.60;76.00
42147;DHT22;27815;43.410;11.852;2024-03-02T10:33:30;13.70;75.90
42147;DHT22;27815;43.410;11.852;2024-03-02T10:37:39;13.70;75.60
42147;DHT22;27815;43.410;11.852;2024-03-02T10:42:22;13.60;75.40
42147;DHT22;27815;43.410;11.852;2024-03-02T10:46:39;13.80;75.20
42147;DHT22;27815;43.410;11.852;2024-03-02T10:50:49;14.00;75.20
42147;DHT22;27815;43.410;11.852;2024-03-02T10:55:05;14.20;74.90
42147;DHT22;27815;43.410;11.852;2024-03-02T11:03:24;14.20;74.40
42147;DHT22;27815;43.410;11.852;2024-03-02T11:07:38;14.20;74.60
42147;DHT22;27815;43.410;11.852;2024-03-02T11:11:45;14.30;74.40
42147;DHT22;27815;43.410;11.852;2024-03-02T11:16:39;14.20;74.00
42147;DHT22;27815;43.410;11.852;2024-03-02T11:20:45;14.30;73.80
42147;DHT22;27815;43.410;11.852;2024-03-02T11:25:04;14.30;73.90
42147;DHT22;27815;43.410;11.852;2024-03-02T11:34:32;14.30;73.30
42147;DHT22;27815;43.410;11.852;2024-03-02T11:38:45;14.20;73.00
42147;DHT22;27815;43.410;11.852;2024-03-02T11:43:00;14.30;73.30
42147;DHT22;27815;43.410;11.852;2024-03-02T11:47:08;14.50;73.20
42147;DHT22;27815;43.410;11.852;2024-03-02T11:51:19;14.80;73.00
42147;DHT22;27815;43.410;11.852;2024-03-02T11:55:26;15.10;72.40
42147;DHT22;27815;43.410;11.852;2024-03-02T11:59:32;15.50;72.00
42147;DHT22;27815;43.410;11.852;2024-03-02T12:03:38;15.70;71.50
42147;DHT22;27815;43.410;11.852;2024-03-02T12:07:46;15.90;70.40
42147;DHT22;27815;43.410;11.852;2024-03-02T12:12:45;16.10;70.20
42147;DHT22;27815;43.410;11.852;2024-03-02T12:16:56;16.40;68.90
42147;DHT22;27815;43.410;11.852;2024-03-02T12:21:06;16.30;68.20
42147;DHT22;27815;43.410;11.852;2024-03-02T12:25:13;16.00;67.20
42147;DHT22;27815;43.410;11.852;2024-03-02T12:29:36;16.00;67.70
42147;DHT22;27815;43.410;11.852;2024-03-02T12:39:19;15.90;67.80
42147;DHT22;27815;43.410;11.852;2024-03-02T12:43:42;16.00;66.60
42147;DHT22;27815;43.410;11.852;2024-03-02T12:48:18;16.10;65.90
42147;DHT22;27815;43.410;11.852;2024-03-02T12:52:25;16.10;65.60
42147;DHT22;27815;43.410;11.852;2024-03-02T12:56:35;16.10;65.90
42147;DHT22;27815;43.410;11.852;2024-03-02T13:00:41;16.10;65.80
42147;DHT22;27815;43.410;11.852;2024-03-02T13:04:44;16.10;64.80
42147;DHT22;27815;43.410;11.852;2024-03-02T13:08:48;16.00;62.90
42147;DHT22;27815;43.410;11.852;2024-03-02T13:12:52;15.70;63.20
42147;DHT22;27815;43.410;11.852;2024-03-02T13:17:08;15.40;64.40
42147;DHT22;27815;43.410;11.852;2024-03-02T13:21:20;15.20;65.20
42147;DHT22;27815;43.410;11.852;2024-03-02T13:25:39;15.30;66.10
42147;DHT22;27815;43.410;11.852;2024-03-02T13:30:08;15.50;66.20
42147;DHT22;27815;43.410;11.852;2024-03-02T13:34:19;15.60;66.60
42147;DHT22;27815;43.410;11.852;2024-03-02T13:39:27;15.60;66.40
42147;DHT22;27815;43.410;11.852;2024-03-02T13:44:36;15.50;66.60
42147;DHT22;27815;43.410;11.852;2024-03-02T13:48:54;15.40;67.00
42147;DHT22;27815;43.410;11.852;2024-03-02T13:53:12;15.20;67.10
42147;DHT22;27815;43.410;11.852;2024-03-02T14:02:08;14.90;67.50
42147;DHT22;27815;43.410;11.852;2024-03-02T14:07:07;14.80;67.70
42147;DHT22;27815;43.410;11.852;2024-03-02T14:24:04;15.30;67.70
42147;DHT22;27815;43.410;11.852;2024-03-02T14:28:28;15.50;66.70
42147;DHT22;27815;43.410;11.852;2024-03-02T14:32:56;15.40;66.20
42147;DHT22;27815;43.410;11.852;2024-03-02T14:37:02;15.50;66.10
42147;DHT22;27815;43.410;11.852;2024-03-02T14:41:11;15.50;65.70
42147;DHT22;27815;43.410;11.852;2024-03-02T14:45:22;15.70;65.30
42147;DHT22;27815;43.410;11.852;2024-03-02T14:49:32;15.70;64.70
42147;DHT22;27815;43.410;11.852;2024-03-02T14:53:40;15.60;63.70
42147;DHT22;27815;43.410;11.852;2024-03-02T14:57:45;15.40;63.40
42147;DHT22;27815;43.410;11.852;2024-03-02T15:02:03;15.10;63.40
42147;DHT22;27815;43.410;11.852;2024-03-02T15:06:09;15.00;63.80
42147;DHT22;27815;43.410;11.852;2024-03-02T15:10:14;15.00;63.90
42147;DHT22;27815;43.410;11.852;2024-03-02T15:14:18;15.00;63.70
42147;DHT22;27815;43.410;11.852;2024-03-02T15:18:28;15.10;63.80
42147;DHT22;27815;43.410;11.852;2024-03-02T15:22:36;15.20;63.50
42147;DHT22;27815;43.410;11.852;2024-03-02T15:26:45;15.20;63.40
42147;DHT22;27815;43.410;11.852;2024-03-02T15:30:49;15.20;63.80
42147;DHT22;27815;43.410;11.852;2024-03-02T15:35:02;15.20;64.20
42147;DHT22;27815;43.410;11.852;2024-03-02T15:39:13;15.10;64.40
42147;DHT22;27815;43.410;11.852;2024-03-02T15:43:19;15.10;64.70
42147;DHT22;27815;43.410;11.852;2024-03-02T15:47:26;15.30;64.80
42147;DHT22;27815;43.410;11.852;2024-03-02T15:51:37;15.40;64.70
42147;DHT22;27815;43.410;11.852;2024-03-02T15:55:46;15.30;64.90
42147;DHT22;27815;43.410;11.852;2024-03-02T15:59:50;15.20;65.10
42147;DHT22;27815;43.410;11.852;2024-03-02T16:03:56;15.20;65.40
42147;DHT22;27815;43.410;11.852;2024-03-02T16:08:23;15.30;65.30
42147;DHT22;27815;43.410;11.852;2024-03-02T16:12:30;15.30;65.40
42147;DHT22;27815;43.410;11.852;2024-03-02T16:16:35;15.30;65.60
42147;DHT22;27815;43.410;11.852;2024-03-02T16:21:10;15.20;65.70
42147;DHT22;27815;43.410;11.852;2024-03-02T16:25:40;15.10;65.80
42147;DHT22;27815;43.410;11.852;2024-03-02T16:29:44;15.00;65.80
42147;DHT22;27815;43.410;11.852;2024-03-02T16:33:47;14.90;66.00
42147;DHT22;27815;43.410;11.852;2024-03-02T16:37:52;14.80;66.20
42147;DHT22;27815;43.410;11.852;2024-03-02T16:41:56;14.70;66.60
42147;DHT22;27815;43.410;11.852;2024-03-02T16:46:00;14.50;66.80
42147;DHT22;27815;43.410;11.852;2024-03-02T16:50:08;14.50;67.00
42147;DHT22;27815;43.410;11.852;2024-03-02T16:54:23;14.30;67.20
42147;DHT22;27815;43.410;11.852;2024-03-02T16:58:27;14.10;67.60
42147;DHT22;27815;43.410;11.852;2024-03-02T17:02:34;14.00;67.80
42147;DHT22;27815;43.410;11.852;2024-03-02T17:06:40;13.80;68.00
42147;DHT22;27815;43.410;11.852;2024-03-02T17:10:48;13.60;68.30
42147;DHT22;27815;43.410;11.852;2024-03-02T17:15:10;13.50;68.50
42147;DHT22;27815;43.410;11.852;2024-03-02T17:19:20;13.20;68.70
42147;DHT22;27815;43.410;11.852;2024-03-02T17:23:24;13.10;68.90
42147;DHT22;27815;43.410;11.852;2024-03-02T17:27:29;13.00;69.20
42147;DHT22;27815;43.410;11.852;2024-03-02T17:31:33;12.90;69.50
42147;DHT22;27815;43.410;11.852;2024-03-02T17:35:37;12.80;69.80
42147;DHT22;27815;43.410;11.852;2024-03-02T17:39:40;12.90;69.90
42147;DHT22;27815;43.410;11.852;2024-03-02T17:43:43;12.90;70.00
42147;DHT22;27815;43.410;11.852;2024-03-02T17:47:47;12.90;70.10
42147;DHT22;27815;43.410;11.852;2024-03-02T17:51:52;12.90;70.20
42147;DHT22;27815;43.410;11.852;2024-03-02T17:56:01;12.90;70.20
42147;DHT22;27815;43.410;11.852;2024-03-02T18:00:07;12.90;70.30
42147;DHT22;27815;43.410;11.852;2024-03-02T18:04:13;12.80;70.50
42147;DHT22;27815;43.410;11.852;2024-03-02T18:08:18;12.80;70.40
42147;DHT22;27815;43.410;11.852;2024-03-02T18:12:22;12.70;70.90
42147;DHT22;27815;43.410;11.852;2024-03-02T18:16:31;12.60;71.20
42147;DHT22;27815;43.410;11.852;2024-03-02T18:20:38;12.50;71.60
42147;DHT22;27815;43.410;11.852;2024-03-02T18:24:44;12.50;71.70
42147;DHT22;27815;43.410;11.852;2024-03-02T18:29:17;12.50;71.90
42147;DHT22;27815;43.410;11.852;2024-03-02T18:33:20;12.40;72.10
42147;DHT22;27815;43.410;11.852;2024-03-02T18:37:25;12.30;72.40
42147;DHT22;27815;43.410;11.852;2024-03-02T18:41:28;12.20;72.70
42147;DHT22;27815;43.410;11.852;2024-03-02T18:45:32;12.10;72.90
42147;DHT22;27815;43.410;11.852;2024-03-02T18:49:43;12.10;73.10
42147;DHT22;27815;43.410;11.852;2024-03-02T18:53:55;12.00;73.30
42147;DHT22;27815;43.410;11.852;2024-03-02T18:58:01;12.00;73.60
42147;DHT22;27815;43.410;11.852;2024-03-02T19:02:07;11.90;73.80
42147;DHT22;27815;43.410;11.852;2024-03-02T19:06:17;11.80;73.90
42147;DHT22;27815;43.410;11.852;2024-03-02T19:10:37;11.70;74.30
42147;DHT22;27815;43.410;11.852;2024-03-02T19:14:40;11.70;74.50
42147;DHT22;27815;43.410;11.852;2024-03-02T19:18:49;11.60;74.60
42147;DHT22;27815;43.410;11.852;2024-03-02T19:22:53;11.50;74.60
42147;DHT22;27815;43.410;11.852;2024-03-02T19:27:00;11.40;74.60
42147;DHT22;27815;43.410;11.852;2024-03-02T19:31:03;11.30;74.70
42147;DHT22;27815;43.410;11.852;2024-03-02T19:35:07;11.10;74.90
42147;DHT22;27815;43.410;11.852;2024-03-02T19:39:10;11.10;75.00
42147;DHT22;27815;43.410;11.852;2024-03-02T19:43:13;11.10;75.10
42147;DHT22;27815;43.410;11.852;2024-03-02T19:47:25;11.00;75.10
42147;DHT22;27815;43.410;11.852;2024-03-02T19:51:31;10.90;75.20
42147;DHT22;27815;43.410;11.852;2024-03-02T19:55:35;10.80;75.30
42147;DHT22;27815;43.410;11.852;2024-03-02T19:59:41;10.80;75.30
42147;DHT22;27815;43.410;11.852;2024-03-02T20:03:46;10.70;75.40
42147;DHT22;27815;43.410;11.852;2024-03-02T20:07:53;10.60;75.40
42147;DHT22;27815;43.410;11.852;2024-03-02T20:12:01;10.60;75.40
42147;DHT22;27815;43.410;11.852;2024-03-02T20:16:08;10.60;75.50
42147;DHT22;27815;43.410;11.852;2024-03-02T20:20:14;10.60;75.40
42147;DHT22;27815;43.410;11.852;2024-03-02T20:24:18;10.50;75.30
42147;DHT22;27815;43.410;11.852;2024-03-02T20:28:25;10.40;75.20
42147;DHT22;27815;43.410;11.852;2024-03-02T20:32:30;10.20;75.30
42147;DHT22;27815;43.410;11.852;2024-03-02T20:36:33;10.10;75.50
42147;DHT22;27815;43.410;11.852;2024-03-02T20:40:36;10.00;75.60
42147;DHT22;27815;43.410;11.852;2024-03-02T20:44:40;10.00;75.70
42147;DHT22;27815;43.410;11.852;2024-03-02T20:48:43;10.00;75.70
42147;DHT22;27815;43.410;11.852;2024-03-02T20:52:49;10.00;75.80
42147;DHT22;27815;43.410;11.852;2024-03-02T20:56:52;9.90;75.70
42147;DHT22;27815;43.410;11.852;2024-03-02T21:00:55;9.90;75.70
42147;DHT22;27815;43.410;11.852;2024-03-02T21:04:58;9.80;75.80
42147;DHT22;27815;43.410;11.852;2024-03-02T21:09:01;9.80;75.80
42147;DHT22;27815;43.410;11.852;2024-03-02T21:13:06;9.60;75.80
42147;DHT22;27815;43.410;11.852;2024-03-02T21:17:09;9.60;75.80
42147;DHT22;27815;43.410;11.852;2024-03-02T21:21:41;9.50;75.90
42147;DHT22;27815;43.410;11.852;2024-03-02T21:25:45;9.50;76.10
42147;DHT22;27815;43.410;11.852;2024-03-02T21:29:48;9.50;76.10
42147;DHT22;27815;43.410;11.852;2024-03-02T21:33:51;9.40;76.10
42147;DHT22;27815;43.410;11.852;2024-03-02T21:38:01;9.40;76.20
42147;DHT22;27815;43.410;11.852;2024-03-02T21:42:09;9.30;76.10
42147;DHT22;27815;43.410;11.852;2024-03-02T21:46:21;9.30;76.30
42147;DHT22;27815;43.410;11.852;2024-03-02T21:50:30;9.20;76.40
42147;DHT22;27815;43.410;11.852;2024-03-02T21:54:33;9.20;76.40
42147;DHT22;27815;43.410;11.852;2024-03-02T21:58:37;9.10;76.40
42147;DHT22;27815;43.410;11.852;2024-03-02T22:02:40;9.00;76.40
42147;DHT22;27815;43.410;11.852;2024-03-02T22:06:44;9.00;76.40
42147;DHT22;27815;43.410;11.852;2024-03-02T22:10:47;9.00;76.50
42147;DHT22;27815;43.410;11.852;2024-03-02T22:14:50;8.90;76.60
42147;DHT22;27815;43.410;11.852;2024-03-02T22:18:54;9.00;76.60
42147;DHT22;27815;43.410;11.852;2024-03-02T22:22:57;9.00;76.60
42147;DHT22;27815;43.410;11.852;2024-03-02T22:27:00;9.10;76.60
42147;DHT22;27815;43.410;11.852;2024-03-02T22:31:03;9.10;76.70
42147;DHT22;27815;43.410;11.852;2024-03-02T22:35:07;9.10;76.80
42147;DHT22;27815;43.410;11.852;2024-03-02T22:39:10;9.10;77.00
42147;DHT22;27815;43.410;11.852;2024-03-02T22:43:13;9.10;77.00
42147;DHT22;27815;43.410;11.852;2024-03-02T22:47:19;9.10;77.20
42147;DHT22;27815;43.410;11.852;2024-03-02T22:51:23;9.10;77.20
42147;DHT22;27815;43.410;11.852;2024-03-02T22:55:26;9.10;77.20
42147;DHT22;27815;43.410;11.852;2024-03-02T22:59:30;9.10;77.30
42147;DHT22;27815;43.410;11.852;2024-03-02T23:03:40;9.10;77.60
42147;DHT22;27815;43.410;11.852;2024-03-02T23:07:44;9.30;78.90
42147;DHT22;27815;43.410;11.852;2024-03-02T23:11:46;9.60;79.40
42147;DHT22;27815;43.410;11.852;2024-03-02T23:15:52;9.90;79.60
42147;DHT22;27815;43.410;11.852;2024-03-02T23:19:55;10.10;80.00
42147;DHT22;27815;43.410;11.852;2024-03-02T23:23:58;10.20;79.90
42147;DHT22;27815;43.410;11.852;2024-03-02T23:28:03;10.40;79.70
42147;DHT22;27815;43.410;11.852;2024-03-02T23:32:07;10.50;79.40
42147;DHT22;27815;43.410;11.852;2024-03-02T23:36:10;10.50;79.20
42147;DHT22;27815;43.410;11.852;2024-03-02T23:40:13;10.60;78.90
42147;DHT22;27815;43.410;11.852;2024-03-02T23:44:19;10.70;78.70
42147;DHT22;27815;43.410;11.852;2024-03-02T23:48:22;10.80;78.40
42147;DHT22;27815;43.410;11.852;2024-03-02T23:52:25;10.80;78.30
42147;DHT22;27815;43.410;11.852;2024-03-02T23:56:28;10.90;78.10
